One Hundred Palms, California
Current Conditions -  °F | °C
As of 9:56 PM on Friday 28 Nov 2014 (Local Time) from KNJK Reporting Station
Clear Clear  
Wind Chill: 54°   Ceiling: Unl
Heat Index: 54°   Visibility: 8mi
Dew Point: 25°   Wind: 0mph
Humidity: 33%   Direction: NA
Pressure: 29.87"   Gusts: NA
Location:  33.093°N, 116.06°W
Report Text: KNJK 290556Z AUTO 00000KT 8SM CLR 12/M04 A2987 RMK AO2 SLP129 T01221039 10272 20122 52006 $
Loading
Personal Weather Stations






























Interactive Weather Map New forecast layout! Learn more

10-Day Weather Forecast

Advertisements
Track Severe Weather on mobile